createdAt,value
2022-10-25T00:00:45.261Z,15.86
2022-10-25T00:01:45.994Z,15.86
2022-10-25T00:02:46.760Z,15.83
2022-10-25T00:03:47.410Z,15.80
2022-10-25T00:04:48.131Z,15.78
2022-10-25T00:05:48.737Z,15.80
2022-10-25T00:06:49.329Z,15.78
2022-10-25T00:07:49.945Z,15.78
2022-10-25T00:08:50.530Z,15.80
2022-10-25T00:09:51.223Z,15.78
2022-10-25T00:10:51.822Z,15.78
2022-10-25T00:11:52.424Z,15.78
2022-10-25T00:12:53.016Z,15.78
2022-10-25T00:13:53.603Z,15.75
2022-10-25T00:14:54.248Z,15.75
2022-10-25T00:15:54.837Z,15.78
2022-10-25T00:16:55.431Z,15.76
2022-10-25T00:17:56.042Z,15.76
2022-10-25T00:18:56.637Z,15.76
2022-10-25T00:19:57.361Z,15.78
2022-10-25T00:20:57.981Z,15.78
2022-10-25T00:21:58.593Z,15.76
2022-10-25T00:22:59.177Z,15.75
2022-10-25T00:23:59.776Z,15.72
2022-10-25T00:25:00.484Z,15.69
2022-10-25T00:26:01.072Z,15.67
2022-10-25T00:27:01.665Z,15.62
2022-10-25T00:28:02.262Z,15.59
2022-10-25T00:29:02.855Z,15.56
2022-10-25T00:30:03.591Z,15.53
2022-10-25T00:31:04.176Z,15.50
2022-10-25T00:32:04.759Z,15.47
2022-10-25T00:33:05.395Z,15.49
2022-10-25T00:34:05.975Z,15.46
2022-10-25T00:35:06.703Z,15.44
2022-10-25T00:36:07.300Z,15.46
2022-10-25T00:37:07.881Z,15.46
2022-10-25T00:38:08.481Z,15.44
2022-10-25T00:39:09.099Z,15.46
2022-10-25T00:40:09.737Z,15.47
2022-10-25T00:41:10.324Z,15.46
2022-10-25T00:42:10.907Z,15.46
2022-10-25T00:43:11.493Z,15.47
2022-10-25T00:44:12.096Z,15.44
2022-10-25T00:45:12.727Z,15.43
2022-10-25T00:46:13.311Z,15.43
2022-10-25T00:47:13.902Z,15.43
2022-10-25T00:48:14.516Z,15.43
2022-10-25T00:49:15.106Z,15.43
2022-10-25T00:50:15.812Z,15.44
2022-10-25T00:51:16.405Z,15.44
2022-10-25T00:52:16.998Z,15.46
2022-10-25T00:53:17.584Z,15.44
2022-10-25T00:54:18.196Z,15.46
2022-10-25T00:55:18.871Z,15.46
2022-10-25T00:56:19.513Z,15.46
2022-10-25T00:57:20.103Z,15.44
2022-10-25T00:58:20.686Z,15.43
2022-10-25T00:59:21.288Z,15.39
2022-10-25T01:00:21.988Z,15.36
2022-10-25T01:01:22.708Z,15.32
2022-10-25T01:02:23.418Z,15.28
2022-10-25T01:03:24.117Z,15.23
2022-10-25T01:04:24.711Z,15.19
2022-10-25T01:05:25.485Z,15.14
2022-10-25T01:06:26.069Z,15.10
2022-10-25T01:07:26.665Z,15.07
2022-10-25T01:08:27.259Z,15.07
2022-10-25T01:09:27.850Z,15.07
2022-10-25T01:10:28.528Z,15.07
2022-10-25T01:11:29.129Z,15.06
2022-10-25T01:12:29.721Z,15.03
2022-10-25T01:13:30.315Z,15.03
2022-10-25T01:14:30.908Z,15.02
2022-10-25T01:15:31.595Z,15.01
2022-10-25T01:16:32.183Z,14.98
2022-10-25T01:17:32.776Z,14.98
2022-10-25T01:18:33.382Z,14.96
2022-10-25T01:20:33.590Z,14.98
2022-10-25T01:21:35.180Z,14.98
2022-10-25T01:22:35.786Z,14.98
2022-10-25T01:23:36.379Z,14.99
2022-10-25T01:24:36.970Z,15.02
2022-10-25T01:25:37.694Z,15.03
2022-10-25T01:26:38.319Z,15.07
2022-10-25T01:27:38.905Z,15.11
2022-10-25T01:28:39.512Z,15.14
2022-10-25T01:29:40.106Z,15.16
2022-10-25T01:30:40.788Z,15.16
2022-10-25T01:31:41.388Z,15.19
2022-10-25T01:32:41.979Z,15.21
2022-10-25T01:33:42.596Z,15.23
2022-10-25T01:34:43.177Z,15.27
2022-10-25T01:35:43.848Z,15.27
2022-10-25T01:36:44.440Z,15.28
2022-10-25T01:37:45.353Z,15.29
2022-10-25T01:38:45.554Z,15.32
2022-10-25T01:39:46.153Z,15.34
2022-10-25T01:40:46.791Z,15.35
2022-10-25T01:41:47.407Z,15.36
2022-10-25T01:42:48.008Z,15.36
2022-10-25T01:43:48.598Z,15.39
2022-10-25T01:44:49.187Z,15.41
2022-10-25T01:45:49.977Z,15.43
2022-10-25T01:46:50.570Z,15.43
2022-10-25T01:47:51.161Z,15.39
2022-10-25T01:48:51.783Z,15.39
2022-10-25T01:49:52.371Z,15.38
2022-10-25T01:50:53.072Z,15.39
2022-10-25T01:51:53.667Z,15.43
2022-10-25T01:53:53.839Z,15.49
2022-10-25T01:54:55.435Z,15.51
2022-10-25T01:55:56.087Z,15.53
2022-10-25T01:56:56.682Z,15.54
2022-10-25T01:57:57.267Z,15.59
2022-10-25T01:58:57.847Z,15.59
2022-10-25T01:59:58.446Z,15.60
2022-10-25T02:00:59.286Z,15.60
2022-10-25T02:01:59.952Z,15.62
2022-10-25T02:03:00.567Z,15.62
2022-10-25T02:04:01.195Z,15.59
2022-10-25T02:05:01.789Z,15.57
2022-10-25T02:06:02.470Z,15.57
2022-10-25T02:07:03.077Z,15.59
2022-10-25T02:08:03.685Z,15.54
2022-10-25T02:09:04.283Z,15.53
2022-10-25T02:11:04.581Z,15.49
2022-10-25T02:12:06.186Z,15.46
2022-10-25T02:13:06.780Z,15.39
2022-10-25T02:14:07.374Z,15.32
2022-10-25T02:15:07.977Z,15.28
2022-10-25T02:16:08.764Z,15.27
2022-10-25T02:17:09.377Z,15.23
2022-10-25T02:18:09.966Z,15.25
2022-10-25T02:19:10.589Z,15.21
2022-10-25T02:20:11.182Z,15.23
2022-10-25T02:21:11.948Z,15.27
2022-10-25T02:22:12.543Z,15.29
2022-10-25T02:23:13.151Z,15.31
2022-10-25T02:24:13.743Z,15.32
2022-10-25T02:25:14.337Z,15.36
2022-10-25T02:26:15.143Z,15.39
2022-10-25T02:27:15.743Z,15.43
2022-10-25T02:28:16.329Z,15.43
2022-10-25T02:29:16.927Z,15.44
2022-10-25T02:30:17.523Z,15.46
2022-10-25T02:31:18.274Z,15.43
2022-10-25T02:32:18.874Z,15.39
2022-10-25T02:33:19.474Z,15.36
2022-10-25T02:34:20.091Z,15.29
2022-10-25T02:35:20.680Z,15.25
2022-10-25T02:36:21.351Z,15.21
2022-10-25T02:37:21.942Z,15.17
2022-10-25T02:38:22.547Z,15.17
2022-10-25T02:39:26.398Z,15.14
2022-10-25T02:40:24.065Z,15.14
2022-10-25T02:41:24.717Z,15.14
2022-10-25T02:42:25.326Z,15.16
2022-10-25T02:43:25.992Z,15.17
2022-10-25T02:44:26.639Z,15.17
2022-10-25T02:45:27.236Z,15.16
2022-10-25T02:46:27.883Z,15.13
2022-10-25T02:47:28.479Z,15.11
2022-10-25T02:48:29.073Z,15.09
2022-10-25T02:49:29.707Z,15.06
2022-10-25T02:50:30.299Z,15.03
2022-10-25T02:51:31.115Z,15.03
2022-10-25T02:52:31.700Z,15.02
2022-10-25T02:53:32.289Z,15.02
2022-10-25T02:54:32.883Z,15.01
2022-10-25T02:55:33.485Z,15.02
2022-10-25T02:56:34.136Z,15.01
2022-10-25T02:57:34.731Z,15.01
2022-10-25T02:58:35.327Z,15.01
2022-10-25T02:59:35.930Z,15.02
2022-10-25T03:00:36.612Z,15.02
2022-10-25T03:01:37.326Z,15.03
2022-10-25T03:02:37.954Z,15.07
2022-10-25T03:03:38.543Z,15.10
2022-10-25T03:04:39.169Z,15.14
2022-10-25T03:05:39.768Z,15.17
2022-10-25T03:06:40.487Z,15.19
2022-10-25T03:07:41.086Z,15.19
2022-10-25T03:08:41.681Z,15.20
2022-10-25T03:09:42.269Z,15.16
2022-10-25T03:10:42.857Z,15.17
2022-10-25T03:11:43.600Z,15.17
2022-10-25T03:12:44.564Z,15.16
2022-10-25T03:13:44.807Z,15.14
2022-10-25T03:14:45.402Z,15.11
2022-10-25T03:15:45.984Z,15.11
2022-10-25T03:17:46.798Z,15.11
2022-10-25T03:18:48.147Z,15.11
2022-10-25T03:19:48.768Z,15.11
2022-10-25T03:20:49.353Z,15.14
2022-10-25T03:21:50.671Z,15.16
2022-10-25T03:22:50.757Z,15.16
2022-10-25T03:23:51.348Z,15.17
2022-10-25T03:24:51.937Z,15.21
2022-10-25T03:25:54.290Z,15.21
2022-10-25T03:26:53.289Z,15.25
2022-10-25T03:27:53.875Z,15.27
2022-10-25T03:28:54.473Z,15.28
2022-10-25T03:29:55.075Z,15.27
2022-10-25T03:30:55.665Z,15.25
2022-10-25T03:31:56.340Z,15.21
2022-10-25T03:32:56.939Z,15.19
2022-10-25T03:33:57.529Z,15.17
2022-10-25T03:34:58.160Z,15.17
2022-10-25T03:35:58.748Z,15.16
2022-10-25T03:36:59.488Z,15.17
2022-10-25T03:38:00.089Z,15.20
2022-10-25T03:39:00.697Z,15.25
2022-10-25T03:40:01.299Z,15.25
2022-10-25T03:41:01.909Z,15.25
2022-10-25T03:42:02.601Z,15.23
2022-10-25T03:43:03.210Z,15.21
2022-10-25T03:44:03.795Z,15.21
2022-10-25T03:45:04.395Z,15.23
2022-10-25T03:46:04.993Z,15.21
2022-10-25T03:47:05.643Z,15.21
2022-10-25T03:48:06.240Z,15.20
2022-10-25T03:49:06.829Z,15.19
2022-10-25T03:50:07.443Z,15.23
2022-10-25T03:51:08.040Z,15.21
2022-10-25T03:52:08.775Z,15.20
2022-10-25T03:54:08.966Z,15.19
2022-10-25T03:55:10.589Z,15.19
2022-10-25T03:56:11.173Z,15.17
2022-10-25T03:57:11.807Z,15.17
2022-10-25T03:58:12.393Z,15.19
2022-10-25T03:59:12.989Z,15.19
2022-10-25T04:00:13.580Z,15.21
2022-10-25T04:01:14.370Z,15.23
2022-10-25T04:02:15.205Z,15.25
2022-10-25T04:03:15.823Z,15.28
2022-10-25T04:04:16.443Z,15.29
2022-10-25T04:05:17.067Z,15.32
2022-10-25T04:06:17.663Z,15.35
2022-10-25T04:07:18.338Z,15.36
2022-10-25T04:08:18.951Z,15.39
2022-10-25T04:09:19.539Z,15.39
2022-10-25T04:10:20.135Z,15.41
2022-10-25T04:11:20.737Z,15.41
2022-10-25T04:12:21.533Z,15.44
2022-10-25T04:13:22.078Z,15.44
2022-10-25T04:14:22.678Z,15.46
2022-10-25T04:15:23.270Z,15.47
2022-10-25T04:16:23.862Z,15.47
2022-10-25T04:17:24.501Z,15.47
2022-10-25T04:18:25.099Z,15.49
2022-10-25T04:19:25.651Z,15.49
2022-10-25T04:20:26.217Z,15.50
2022-10-25T04:21:26.750Z,15.51
2022-10-25T04:22:27.369Z,15.53
2022-10-25T04:23:27.967Z,15.53
2022-10-25T04:24:28.521Z,15.51
2022-10-25T04:25:29.062Z,15.51
2022-10-25T04:26:29.594Z,15.50
2022-10-25T04:27:30.255Z,15.50
2022-10-25T04:28:30.796Z,15.47
2022-10-25T04:29:31.338Z,15.47
2022-10-25T04:30:35.163Z,15.44
2022-10-25T04:31:32.753Z,15.43
2022-10-25T04:32:33.357Z,15.41
2022-10-25T04:33:34.756Z,15.41
2022-10-25T04:34:34.804Z,15.38
2022-10-25T04:35:35.453Z,15.39
2022-10-25T04:36:36.234Z,15.39
2022-10-25T04:37:36.838Z,15.41
2022-10-25T04:38:37.380Z,15.41
2022-10-25T04:39:37.939Z,15.41
2022-10-25T04:40:38.493Z,15.44
2022-10-25T04:42:01.240Z,15.41
2022-10-25T04:42:40.894Z,15.43
2022-10-25T04:43:40.833Z,15.41
2022-10-25T04:44:41.550Z,15.41
2022-10-25T04:45:42.418Z,15.44
2022-10-25T04:46:46.372Z,15.44
2022-10-25T04:47:43.913Z,15.44
2022-10-25T04:48:44.462Z,15.46
2022-10-25T04:49:45.039Z,15.47
2022-10-25T04:50:45.888Z,15.47
2022-10-25T04:51:46.464Z,15.51
2022-10-25T04:52:47.648Z,15.51
2022-10-25T04:53:47.899Z,15.53
2022-10-25T04:54:48.440Z,15.53
2022-10-25T04:55:49.747Z,15.53
2022-10-25T04:56:49.797Z,15.54
2022-10-25T04:57:50.424Z,15.54
2022-10-25T04:58:51.008Z,15.56
2022-10-25T04:59:51.540Z,15.57
2022-10-25T05:00:52.083Z,15.56
2022-10-25T05:01:52.675Z,15.56
2022-10-25T05:03:02.786Z,15.59
2022-10-25T05:03:54.365Z,15.60
2022-10-25T05:04:54.920Z,15.60
2022-10-25T05:05:58.236Z,15.65
2022-10-25T05:06:56.281Z,15.68
2022-10-25T05:07:56.839Z,15.69
2022-10-25T05:08:57.469Z,15.71
2022-10-25T05:09:58.347Z,15.74
2022-10-25T05:10:58.969Z,15.76
2022-10-25T05:12:00.261Z,15.80
2022-10-25T05:13:00.592Z,15.82
2022-10-25T05:14:04.032Z,15.83
2022-10-25T05:15:02.967Z,15.86
2022-10-25T05:16:19.426Z,15.87
2022-10-25T05:17:15.364Z,15.90
2022-10-25T05:18:04.436Z,15.93
2022-10-25T05:19:05.179Z,15.97
2022-10-25T05:20:05.747Z,15.97
2022-10-25T05:21:19.384Z,16.00
2022-10-25T05:22:07.709Z,16.02
2022-10-25T05:23:13.765Z,16.08
2022-10-25T05:24:08.605Z,16.09
2022-10-25T05:25:10.134Z,16.12
2022-10-25T05:26:10.111Z,16.15
2022-10-25T05:27:10.646Z,16.15
2022-10-25T05:28:11.155Z,16.15
2022-10-25T05:29:11.735Z,16.14
2022-10-25T05:30:12.243Z,16.11
2022-10-25T05:31:12.972Z,16.09
2022-10-25T05:32:13.797Z,16.09
2022-10-25T05:33:14.463Z,16.09
2022-10-25T05:34:19.866Z,16.09
2022-10-25T05:35:19.620Z,16.11
2022-10-25T05:36:25.950Z,16.14
2022-10-25T05:37:17.694Z,16.17
2022-10-25T05:38:18.205Z,16.21
2022-10-25T05:39:18.712Z,16.21
2022-10-25T05:40:19.257Z,16.27
2022-10-25T05:41:19.803Z,16.31
2022-10-25T05:42:20.305Z,16.30
2022-10-25T05:43:20.991Z,16.34
2022-10-25T05:44:21.491Z,16.41
2022-10-25T05:45:30.631Z,16.42
2022-10-25T05:46:22.668Z,16.48
2022-10-25T05:47:26.004Z,16.50
2022-10-25T05:48:23.701Z,16.57
2022-10-25T05:49:25.147Z,16.61
2022-10-25T05:50:24.878Z,16.70
2022-10-25T05:51:33.202Z,16.78
2022-10-25T05:52:26.313Z,16.85
2022-10-25T05:53:26.818Z,16.91
2022-10-25T05:54:27.314Z,16.96
2022-10-25T05:55:27.818Z,17.04
2022-10-25T05:56:28.356Z,17.12
2022-10-25T05:57:36.896Z,17.28
2022-10-25T05:58:36.088Z,17.63
2022-10-25T05:59:30.629Z,18.18
2022-10-25T06:00:40.779Z,18.70
2022-10-25T06:01:32.369Z,19.18
2022-10-25T06:02:33.079Z,19.66
2022-10-25T06:05:40.549Z,20.94
2022-10-25T06:06:43.099Z,21.28
2022-10-25T06:08:01.394Z,21.56
2022-10-25T06:12:44.288Z,22.47
2022-10-25T06:13:46.298Z,22.60
2022-10-25T06:14:50.225Z,22.75
2022-10-25T06:16:09.330Z,22.80
2022-10-25T06:16:48.329Z,23.07
2022-10-25T06:17:51.226Z,23.20
2022-10-25T06:18:50.140Z,23.43
2022-10-25T06:19:50.237Z,23.69
2022-10-25T06:20:50.800Z,24.06
2022-10-25T06:21:51.318Z,24.34
2022-10-25T06:22:51.852Z,24.73
2022-10-25T06:23:52.438Z,25.18
2022-10-25T06:24:52.948Z,25.64
2022-10-25T06:25:53.446Z,26.01
2022-10-25T06:26:53.941Z,26.28
2022-10-25T06:27:54.464Z,26.58
2022-10-25T06:28:54.973Z,26.81
2022-10-25T06:29:55.474Z,26.91
2022-10-25T06:30:55.978Z,27.09
2022-10-25T06:31:56.654Z,27.19
2022-10-25T06:32:58.990Z,27.37
2022-10-25T06:33:57.795Z,27.66
2022-10-25T06:35:04.197Z,28.02
2022-10-25T06:35:58.835Z,28.15
2022-10-25T06:36:59.348Z,28.36
2022-10-25T06:37:59.885Z,28.48
2022-10-25T06:39:05.771Z,28.73
2022-10-25T06:40:01.296Z,28.95
2022-10-25T06:41:01.819Z,29.16
2022-10-25T06:42:04.316Z,29.36
2022-10-25T06:43:13.397Z,29.58
2022-10-25T06:44:06.387Z,29.82
2022-10-25T06:45:04.607Z,30.10
2022-10-25T06:46:05.118Z,30.43
2022-10-25T06:47:16.811Z,30.86
2022-10-25T06:48:06.481Z,31.19
2022-10-25T06:49:07.312Z,31.50
2022-10-25T06:51:07.359Z,32.10
2022-10-25T06:52:08.862Z,32.32
2022-10-25T06:53:09.458Z,32.44
2022-10-25T06:54:09.988Z,32.62
2022-10-25T06:55:10.578Z,32.87
2022-10-25T06:56:14.462Z,32.97
2022-10-25T06:57:11.785Z,33.01
2022-10-25T06:58:12.318Z,33.09
2022-10-25T06:59:12.969Z,33.26
2022-10-25T07:00:13.465Z,33.37
2022-10-25T07:01:14.152Z,33.37
2022-10-25T07:02:18.142Z,33.50
2022-10-25T07:03:15.754Z,33.65
2022-10-25T07:04:16.294Z,34.02
2022-10-25T07:05:16.843Z,34.12
2022-10-25T07:06:17.488Z,34.28
2022-10-25T07:07:18.089Z,34.37
2022-10-25T07:08:28.261Z,34.42
2022-10-25T07:09:34.641Z,34.54
2022-10-25T07:10:20.273Z,34.56
2022-10-25T07:11:20.819Z,34.54
2022-10-25T07:12:21.356Z,34.62
2022-10-25T07:13:22.072Z,34.75
2022-10-25T07:14:22.650Z,34.89
2022-10-25T07:15:35.451Z,34.96
2022-10-25T07:16:24.035Z,35.22
2022-10-25T07:17:24.548Z,35.38
2022-10-25T07:18:25.213Z,35.43
2022-10-25T07:19:25.722Z,35.63
2022-10-25T07:20:26.329Z,35.92
2022-10-25T07:21:26.883Z,36.25
2022-10-25T07:22:28.475Z,36.44
2022-10-25T07:23:28.512Z,36.53
2022-10-25T07:24:29.028Z,36.59
2022-10-25T07:25:29.586Z,36.73
2022-10-25T07:26:30.955Z,36.72
2022-10-25T07:27:30.728Z,36.94
2022-10-25T07:28:31.262Z,37.13
2022-10-25T07:29:31.764Z,37.40
2022-10-25T07:30:32.272Z,37.37
2022-10-25T07:31:32.777Z,37.49
2022-10-25T07:32:33.296Z,37.67
2022-10-25T07:33:33.853Z,37.63
2022-10-25T07:34:34.360Z,37.39
2022-10-25T07:35:41.983Z,37.39
2022-10-25T07:36:51.187Z,37.50
2022-10-25T07:37:36.629Z,37.70
2022-10-25T07:38:45.836Z,37.84
2022-10-25T07:39:37.821Z,38.06
2022-10-25T07:40:38.369Z,38.18
2022-10-25T07:41:38.864Z,38.28
2022-10-25T07:42:39.425Z,38.32
2022-10-25T07:43:39.971Z,38.20
2022-10-25T07:44:40.515Z,38.18
2022-10-25T07:47:29.902Z,37.98
2022-10-25T07:48:32.074Z,37.79
2022-10-25T07:49:33.762Z,37.43
2022-10-25T07:50:33.866Z,37.15
2022-10-25T07:51:40.877Z,36.99
2022-10-25T07:52:34.254Z,36.80
2022-10-25T07:53:39.768Z,36.44
2022-10-25T07:54:35.946Z,36.23
2022-10-25T07:55:36.678Z,35.94
2022-10-25T07:56:37.253Z,35.90
2022-10-25T07:57:37.751Z,35.77
2022-10-25T07:58:38.259Z,35.55
2022-10-25T07:59:38.798Z,35.44
2022-10-25T08:00:39.309Z,35.09
2022-10-25T08:01:40.932Z,34.59
2022-10-25T08:02:43.446Z,34.27
2022-10-25T08:03:41.197Z,34.09
2022-10-25T08:04:41.758Z,33.91
2022-10-25T08:05:42.295Z,33.76
2022-10-25T08:06:43.073Z,33.66
2022-10-25T08:07:43.659Z,33.38
2022-10-25T08:08:44.183Z,33.12
2022-10-25T08:09:45.061Z,32.84
2022-10-25T08:22:23.526Z,30.37
2022-10-25T08:23:24.544Z,30.26
2022-10-25T08:24:25.562Z,30.13
2022-10-25T08:25:33.883Z,30.07
2022-10-25T08:26:26.521Z,30.00
2022-10-25T08:27:27.116Z,30.02
2022-10-25T08:28:27.733Z,30.08
2022-10-25T08:29:28.246Z,30.13
2022-10-25T08:30:28.753Z,30.04
2022-10-25T08:31:29.311Z,29.98
2022-10-25T08:32:30.949Z,30.15
2022-10-25T08:33:30.459Z,30.23
2022-10-25T08:34:33.164Z,30.34
2022-10-25T08:35:31.836Z,30.37
2022-10-25T08:36:32.456Z,30.47
2022-10-25T08:37:33.003Z,30.57
2022-10-25T08:38:33.506Z,30.67
2022-10-25T08:39:34.058Z,30.82
2022-10-25T08:40:34.752Z,30.86
2022-10-25T08:41:36.340Z,30.94
2022-10-25T08:42:35.832Z,30.95
2022-10-25T08:43:36.331Z,30.99
2022-10-25T08:44:44.591Z,31.13
2022-10-25T08:45:37.856Z,31.38
2022-10-25T08:46:45.693Z,31.58
2022-10-25T08:47:39.376Z,31.99
2022-10-25T08:48:39.879Z,32.41
2022-10-25T08:49:40.539Z,32.87
2022-10-25T08:50:40.907Z,33.28
2022-10-25T08:51:41.558Z,33.69
2022-10-25T08:52:42.123Z,34.24
2022-10-25T08:53:42.690Z,34.64
2022-10-25T08:54:43.215Z,34.88
2022-10-25T08:55:58.740Z,35.26
2022-10-25T08:57:14.051Z,35.68
2022-10-25T08:57:45.849Z,36.17
2022-10-25T08:58:46.078Z,36.62
2022-10-25T08:59:46.586Z,37.13
2022-10-25T09:00:47.092Z,37.60
2022-10-25T09:01:47.710Z,38.23
2022-10-25T09:02:48.382Z,38.65
2022-10-25T09:03:48.880Z,38.98
2022-10-25T09:04:49.425Z,39.35
2022-10-25T09:05:49.933Z,39.60
2022-10-25T09:06:50.506Z,39.84
2022-10-25T09:07:51.057Z,40.07
2022-10-25T09:08:52.586Z,40.32
2022-10-25T09:09:52.516Z,40.45
2022-10-25T09:10:52.842Z,40.61
2022-10-25T09:11:53.424Z,40.65
2022-10-25T09:12:54.075Z,40.67
2022-10-25T09:13:54.765Z,40.82
2022-10-25T09:14:55.322Z,41.04
2022-10-25T09:15:55.948Z,41.21
2022-10-25T09:16:56.444Z,41.20
2022-10-25T09:17:57.031Z,41.07
2022-10-25T09:19:02.153Z,41.10
2022-10-25T09:19:58.486Z,41.23
2022-10-25T09:20:59.278Z,41.44
2022-10-25T09:22:00.797Z,41.57
2022-10-25T09:23:01.446Z,41.62
2022-10-25T09:24:01.169Z,41.54
2022-10-25T09:25:01.751Z,41.45
2022-10-25T09:26:09.856Z,41.39
2022-10-25T09:27:03.150Z,41.28
2022-10-25T09:28:05.494Z,41.11
2022-10-25T09:29:10.396Z,41.08
2022-10-25T09:32:19.684Z,42.11
2022-10-25T09:33:18.741Z,42.58
2022-10-25T09:34:20.694Z,42.59
2022-10-25T09:35:20.192Z,42.54
2022-10-25T09:36:20.714Z,42.59
2022-10-25T09:37:21.362Z,42.83
2022-10-25T09:38:45.521Z,42.87
2022-10-25T09:39:22.569Z,42.77
2022-10-25T09:40:23.115Z,42.62
2022-10-25T09:41:23.640Z,42.45
2022-10-25T09:42:30.178Z,42.30
2022-10-25T09:43:25.478Z,41.89
2022-10-25T09:44:25.978Z,41.96
2022-10-25T09:45:26.558Z,41.90
2022-10-25T09:46:27.360Z,41.84
2022-10-25T09:47:27.796Z,41.89
2022-10-25T09:48:28.330Z,41.86
2022-10-25T09:49:28.827Z,41.93
2022-10-25T09:50:29.333Z,41.87
2022-10-25T09:51:29.834Z,41.80
2022-10-25T09:52:30.675Z,41.67
2022-10-25T09:53:31.002Z,41.76
2022-10-25T09:54:32.237Z,41.78
2022-10-25T09:55:32.205Z,41.82
2022-10-25T09:56:36.461Z,41.74
2022-10-25T09:57:33.599Z,41.69
2022-10-25T09:58:34.140Z,41.66
2022-10-25T09:59:34.648Z,41.83
2022-10-25T10:00:35.198Z,41.63
2022-10-25T10:01:35.860Z,41.41
2022-10-25T10:02:36.575Z,41.44
2022-10-25T10:03:37.224Z,41.36
2022-10-25T10:04:37.890Z,41.42
2022-10-25T10:05:38.397Z,41.39
2022-10-25T10:06:38.905Z,41.32
2022-10-25T10:07:39.415Z,41.26
2022-10-25T10:08:40.016Z,41.25
2022-10-25T10:09:44.933Z,41.21
2022-10-25T10:10:41.379Z,41.06
2022-10-25T10:11:41.877Z,41.06
2022-10-25T10:12:42.376Z,41.02
2022-10-25T10:13:42.931Z,40.95
2022-10-25T10:14:43.911Z,40.69
2022-10-25T10:15:43.937Z,40.50
2022-10-25T10:16:44.430Z,40.43
2022-10-25T10:17:45.214Z,40.45
2022-10-25T10:18:45.939Z,40.43
2022-10-25T10:19:46.461Z,40.50
2022-10-25T10:20:46.978Z,40.82
2022-10-25T10:21:47.481Z,40.99
2022-10-25T10:23:52.979Z,40.89
2022-10-25T10:24:54.374Z,40.79
2022-10-25T10:25:51.352Z,40.64
2022-10-25T10:26:51.994Z,40.42
2022-10-25T10:27:52.013Z,40.25
2022-10-25T10:28:52.633Z,40.23
2022-10-25T10:29:53.227Z,40.22
2022-10-25T10:30:53.732Z,40.26
2022-10-25T10:31:54.228Z,40.48
2022-10-25T10:32:57.129Z,40.64
2022-10-25T10:33:55.635Z,40.51
2022-10-25T10:34:56.137Z,40.34
2022-10-25T10:35:56.641Z,40.18
2022-10-25T10:36:57.148Z,40.00
2022-10-25T10:37:57.656Z,40.15
2022-10-25T10:38:58.223Z,40.43
2022-10-25T10:39:58.750Z,40.65
2022-10-25T10:40:59.257Z,40.74
2022-10-25T10:41:59.791Z,40.57
2022-10-25T10:43:00.292Z,40.39
2022-10-25T10:44:00.915Z,40.45
2022-10-25T10:45:01.420Z,40.65
2022-10-25T10:46:01.925Z,40.83
2022-10-25T10:47:02.429Z,40.70
2022-10-25T10:48:02.933Z,40.42
2022-10-25T10:49:03.534Z,40.15
2022-10-25T10:50:04.079Z,40.19
2022-10-25T10:51:06.604Z,40.48
2022-10-25T10:52:05.496Z,40.58
2022-10-25T10:53:06.007Z,40.58
2022-10-25T10:54:06.872Z,40.76
2022-10-25T10:55:07.410Z,41.01
2022-10-25T10:56:07.914Z,41.23
2022-10-25T10:57:08.438Z,41.42
2022-10-25T10:58:08.950Z,41.63
2022-10-25T10:59:09.479Z,41.89
2022-10-25T11:00:10.133Z,41.98
2022-10-25T11:01:11.341Z,41.99
2022-10-25T11:02:11.759Z,41.99
2022-10-25T11:03:12.421Z,42.09
2022-10-25T11:04:12.959Z,42.02
2022-10-25T11:05:13.459Z,41.90
2022-10-25T11:06:13.961Z,42.01
2022-10-25T11:07:14.457Z,41.80
2022-10-25T11:08:14.971Z,41.45
2022-10-25T11:09:15.570Z,41.29
2022-10-25T11:10:16.104Z,41.23
2022-10-25T11:11:16.610Z,41.14
2022-10-25T11:12:17.116Z,41.26
2022-10-25T11:13:17.930Z,41.18
2022-10-25T11:14:18.487Z,41.08
2022-10-25T11:15:18.988Z,41.16
2022-10-25T11:16:21.942Z,41.30
2022-10-25T11:17:20.350Z,41.37
2022-10-25T11:18:20.847Z,41.26
2022-10-25T11:19:21.381Z,41.29
2022-10-25T11:20:21.891Z,41.23
2022-10-25T11:21:22.390Z,41.30
2022-10-25T11:22:22.899Z,41.14
2022-10-25T11:23:23.390Z,41.08
2022-10-25T11:24:23.982Z,40.98
2022-10-25T11:25:24.619Z,40.94
2022-10-25T11:26:25.127Z,40.87
2022-10-25T11:27:25.630Z,40.72
2022-10-25T11:28:26.153Z,40.70
2022-10-25T11:29:26.682Z,40.99
2022-10-25T11:30:27.226Z,41.25
2022-10-25T11:31:27.722Z,41.66
2022-10-25T11:32:28.288Z,41.87
2022-10-25T11:33:28.812Z,42.24
2022-10-25T11:34:29.350Z,42.33
2022-10-25T11:35:29.853Z,42.58
2022-10-25T11:36:30.354Z,42.68
2022-10-25T11:37:30.851Z,42.77
2022-10-25T11:38:31.348Z,42.62
2022-10-25T11:39:31.969Z,42.64
2022-10-25T11:40:32.605Z,42.65
2022-10-25T11:41:33.115Z,42.58
2022-10-25T11:42:33.615Z,42.62
2022-10-25T11:43:34.117Z,42.70
2022-10-25T11:44:34.654Z,42.99
2022-10-25T11:45:35.159Z,43.00
2022-10-25T11:46:35.656Z,42.92
2022-10-25T11:47:38.107Z,42.84
2022-10-25T11:48:37.044Z,42.73
2022-10-25T11:49:37.594Z,42.66
2022-10-25T11:50:38.091Z,42.50
2022-10-25T11:51:38.601Z,42.58
2022-10-25T11:52:39.109Z,42.80
2022-10-25T11:53:39.613Z,43.25
2022-10-25T11:54:40.142Z,43.50
2022-10-25T11:55:40.762Z,43.57
2022-10-25T11:56:41.257Z,43.57
2022-10-25T11:57:41.779Z,43.65
2022-10-25T11:58:42.280Z,43.54
2022-10-25T11:59:42.815Z,43.38
2022-10-25T12:00:43.314Z,43.38
2022-10-25T12:01:43.865Z,43.25
2022-10-25T12:02:44.550Z,43.27
2022-10-25T12:03:45.189Z,43.08
2022-10-25T12:04:45.742Z,43.05
2022-10-25T12:05:46.249Z,43.00
2022-10-25T12:06:46.749Z,43.05
2022-10-25T12:07:47.263Z,43.23
2022-10-25T12:08:47.769Z,43.59
2022-10-25T12:09:48.352Z,43.79
2022-10-25T12:10:48.987Z,44.07
2022-10-25T12:11:49.482Z,43.95
2022-10-25T12:12:50.410Z,43.75
2022-10-25T12:13:50.669Z,43.52
2022-10-25T12:14:51.200Z,43.47
2022-10-25T12:15:51.701Z,43.12
2022-10-25T12:16:52.201Z,42.92
2022-10-25T12:17:52.712Z,42.61
2022-10-25T12:18:53.215Z,42.45
2022-10-25T12:19:53.750Z,42.21
2022-10-25T12:20:54.254Z,42.01
2022-10-25T12:21:56.735Z,41.83
2022-10-25T12:22:55.259Z,41.69
2022-10-25T12:23:55.764Z,41.67
2022-10-25T12:24:56.351Z,41.55
2022-10-25T12:25:56.971Z,41.51
2022-10-25T12:26:57.464Z,41.44
2022-10-25T12:27:57.974Z,41.32
2022-10-25T12:28:58.478Z,41.18
2022-10-25T12:29:59.026Z,41.25
2022-10-25T12:30:59.534Z,41.17
2022-10-25T12:32:00.031Z,41.18
2022-10-25T12:33:00.522Z,41.01
2022-10-25T12:34:01.035Z,41.07
2022-10-25T12:35:01.645Z,41.07
2022-10-25T12:36:02.141Z,41.18
2022-10-25T12:37:02.633Z,41.13
2022-10-25T12:38:03.140Z,40.95
2022-10-25T12:39:03.671Z,40.77
2022-10-25T12:40:04.286Z,40.76
2022-10-25T12:41:04.910Z,40.61
2022-10-25T12:42:05.415Z,40.57
2022-10-25T12:43:05.920Z,40.53
2022-10-25T12:44:06.425Z,40.53
2022-10-25T12:45:07.104Z,40.45
2022-10-25T12:46:07.608Z,40.34
2022-10-25T12:47:08.109Z,40.39
2022-10-25T12:48:08.604Z,40.35
2022-10-25T12:49:09.112Z,40.32
2022-10-25T12:50:09.739Z,40.26
2022-10-25T12:51:12.074Z,40.19
2022-10-25T12:52:11.092Z,40.16
2022-10-25T12:53:11.600Z,40.16
2022-10-25T12:54:12.108Z,39.94
2022-10-25T12:55:12.661Z,40.04
2022-10-25T12:56:13.283Z,40.12
2022-10-25T12:57:13.805Z,40.16
2022-10-25T12:58:14.308Z,39.98
2022-10-25T12:59:14.819Z,39.91
2022-10-25T13:00:15.434Z,39.96
2022-10-25T13:01:16.014Z,39.97
2022-10-25T13:02:16.572Z,39.92
2022-10-25T13:03:19.415Z,39.55
2022-10-25T13:04:17.739Z,39.33
2022-10-25T13:05:18.291Z,39.30
2022-10-25T13:06:18.811Z,39.04
2022-10-25T13:08:20.171Z,38.78
2022-10-25T13:09:22.291Z,38.60
2022-10-25T13:10:21.701Z,38.25
2022-10-25T13:11:22.426Z,38.13
2022-10-25T13:12:22.928Z,38.03
2022-10-25T13:13:23.440Z,37.64
2022-10-25T13:14:23.939Z,37.49
2022-10-25T13:15:24.478Z,37.18
2022-10-25T13:16:25.003Z,37.05
2022-10-25T13:17:25.507Z,36.78
2022-10-25T13:18:26.018Z,36.53
2022-10-25T13:19:49.369Z,36.27
2022-10-25T13:20:27.418Z,36.01
2022-10-25T13:21:27.924Z,35.63
2022-10-25T13:22:28.428Z,35.33
2022-10-25T13:23:28.935Z,34.85
2022-10-25T13:24:29.434Z,34.47
2022-10-25T13:25:30.042Z,34.06
2022-10-25T13:26:30.663Z,33.61
2022-10-25T13:27:31.166Z,33.29
2022-10-25T13:28:35.998Z,32.94
2022-10-25T13:29:32.266Z,32.67
2022-10-25T13:30:32.809Z,32.45